createdAt,value
2022-10-14T00:02:22.083Z,6.70
2022-10-14T00:04:48.682Z,6.60
2022-10-14T00:07:15.372Z,6.60
2022-10-14T00:09:42.831Z,6.60
2022-10-14T00:12:09.496Z,6.60
2022-10-14T00:17:27.692Z,6.60
2022-10-14T00:19:54.354Z,6.50
2022-10-14T00:22:20.946Z,6.50
2022-10-14T00:24:47.563Z,6.50
2022-10-14T00:27:14.175Z,6.50
2022-10-14T00:29:40.829Z,6.50
2022-10-14T00:32:07.408Z,6.40
2022-10-14T00:34:34.332Z,6.40
2022-10-14T00:37:00.936Z,6.40
2022-10-14T00:39:27.597Z,6.40
2022-10-14T00:41:54.252Z,6.40
2022-10-14T00:44:20.807Z,6.40
2022-10-14T00:46:49.531Z,6.30
2022-10-14T00:49:31.940Z,6.30
2022-10-14T00:52:02.251Z,6.30
2022-10-14T00:54:57.668Z,6.30
2022-10-14T00:57:25.317Z,6.30
2022-10-14T00:59:54.385Z,6.30
2022-10-14T01:02:21.434Z,6.20
2022-10-14T01:04:48.088Z,6.20
2022-10-14T01:07:24.057Z,6.20
2022-10-14T01:10:13.868Z,6.20
2022-10-14T01:13:16.178Z,6.10
2022-10-14T01:15:56.184Z,6.10
2022-10-14T01:18:43.917Z,6.10
2022-10-14T01:21:29.087Z,6.10
2022-10-14T01:24:27.220Z,6.00
2022-10-14T01:30:16.408Z,6.00
2022-10-14T01:32:45.818Z,6.00
2022-10-14T01:35:40.148Z,6.00
2022-10-14T01:38:15.030Z,5.90
2022-10-14T01:40:56.710Z,5.90
2022-10-14T01:43:25.517Z,5.90
2022-10-14T01:45:54.911Z,5.90
2022-10-14T01:48:25.197Z,5.90
2022-10-14T01:50:53.434Z,5.90
2022-10-14T01:53:45.898Z,5.80
2022-10-14T01:56:15.002Z,5.80
2022-10-14T01:58:43.510Z,5.80
2022-10-14T02:01:10.267Z,5.70
2022-10-14T02:03:45.682Z,5.80
2022-10-14T02:06:25.430Z,5.70
2022-10-14T02:09:15.490Z,5.70
2022-10-14T02:12:21.004Z,5.70
2022-10-14T02:15:12.524Z,5.70
2022-10-14T02:17:50.072Z,5.70
2022-10-14T02:20:27.480Z,5.70
2022-10-14T02:23:18.732Z,5.60
2022-10-14T02:25:47.824Z,5.60
2022-10-14T02:28:18.365Z,5.50
2022-10-14T02:30:50.818Z,5.50
2022-10-14T02:33:20.775Z,5.50
2022-10-14T02:38:40.958Z,5.50
2022-10-14T02:41:12.702Z,5.50
2022-10-14T02:43:39.332Z,5.60
2022-10-14T02:46:06.380Z,5.50
2022-10-14T02:48:33.068Z,5.50
2022-10-14T02:50:59.656Z,5.50
2022-10-14T02:53:26.398Z,5.40
2022-10-14T02:55:53.113Z,5.40
2022-10-14T02:58:19.745Z,5.40
2022-10-14T03:00:49.318Z,5.40
2022-10-14T03:03:15.959Z,5.40
2022-10-14T03:05:43.357Z,5.40
2022-10-14T03:08:10.903Z,5.40
2022-10-14T03:10:37.943Z,5.40
2022-10-14T03:13:04.652Z,5.40
2022-10-14T03:15:31.290Z,5.40
2022-10-14T03:17:57.964Z,5.40
2022-10-14T03:20:24.609Z,5.50
2022-10-14T03:25:45.974Z,5.60
2022-10-14T03:28:13.270Z,5.60
2022-10-14T03:30:40.264Z,5.70
2022-10-14T03:33:06.896Z,5.70
2022-10-14T03:35:33.571Z,5.80
2022-10-14T03:38:02.984Z,5.90
2022-10-14T03:40:30.905Z,5.90
2022-10-14T03:42:59.657Z,6.00
2022-10-14T03:45:26.434Z,6.00
2022-10-14T03:47:53.032Z,6.10
2022-10-14T03:50:19.667Z,6.10
2022-10-14T03:52:47.105Z,6.20
2022-10-14T03:55:14.662Z,6.20
2022-10-14T03:57:41.554Z,6.30
2022-10-14T04:00:09.254Z,6.30
2022-10-14T04:02:36.157Z,6.40
2022-10-14T04:05:02.882Z,6.50
2022-10-14T04:07:29.527Z,6.50
2022-10-14T04:09:56.303Z,6.60
2022-10-14T04:12:23.475Z,6.60
2022-10-14T04:14:50.344Z,6.70
2022-10-14T04:17:16.990Z,6.70
2022-10-14T04:19:43.599Z,6.70
2022-10-14T04:22:10.269Z,6.80
2022-10-14T04:24:37.036Z,6.80
2022-10-14T04:27:03.696Z,6.90
2022-10-14T04:29:30.366Z,6.90
2022-10-14T04:31:56.981Z,6.90
2022-10-14T04:34:23.717Z,6.90
2022-10-14T04:36:51.916Z,6.90
2022-10-14T04:39:18.793Z,6.90
2022-10-14T04:41:45.397Z,6.90
2022-10-14T04:44:11.976Z,7.00
2022-10-14T04:46:38.575Z,7.00
2022-10-14T04:49:05.273Z,7.00
2022-10-14T04:51:31.903Z,7.00
2022-10-14T04:53:58.555Z,7.00
2022-10-14T04:56:25.144Z,7.00
2022-10-14T04:58:51.783Z,7.00
2022-10-14T05:01:18.679Z,7.00
2022-10-14T05:03:45.560Z,6.90
2022-10-14T05:06:12.293Z,6.90
2022-10-14T05:08:38.927Z,6.90
2022-10-14T05:11:05.573Z,6.90
2022-10-14T05:13:32.182Z,6.80
2022-10-14T05:15:58.884Z,6.80
2022-10-14T05:18:26.563Z,6.70
2022-10-14T05:20:53.292Z,6.70
2022-10-14T05:23:19.901Z,6.70
2022-10-14T05:25:46.549Z,6.70
2022-10-14T05:28:13.228Z,6.70
2022-10-14T05:30:39.874Z,6.70
2022-10-14T05:33:06.510Z,6.70
2022-10-14T05:35:57.422Z,6.70
2022-10-14T05:38:20.046Z,6.70
2022-10-14T05:40:57.352Z,6.80
2022-10-14T05:43:30.902Z,6.80
2022-10-14T05:45:59.100Z,6.80
2022-10-14T05:48:25.725Z,6.80
2022-10-14T05:50:52.882Z,6.80
2022-10-14T05:53:19.699Z,6.90
2022-10-14T05:55:46.369Z,6.90
2022-10-14T05:58:13.061Z,7.00
2022-10-14T06:00:39.751Z,7.00
2022-10-14T06:03:06.615Z,7.10
2022-10-14T06:05:36.877Z,7.20
2022-10-14T06:08:03.443Z,7.20
2022-10-14T06:10:30.109Z,7.30
2022-10-14T06:12:57.047Z,7.40
2022-10-14T06:15:23.775Z,7.50
2022-10-14T06:17:50.367Z,7.50
2022-10-14T06:20:17.144Z,7.60
2022-10-14T06:22:43.823Z,7.60
2022-10-14T06:25:10.445Z,7.70
2022-10-14T06:27:37.355Z,7.70
2022-10-14T06:30:05.098Z,7.80
2022-10-14T06:32:31.680Z,7.90
2022-10-14T06:37:48.599Z,8.00
2022-10-14T06:40:15.236Z,8.10
2022-10-14T06:42:41.950Z,8.20
2022-10-14T06:45:08.970Z,8.20
2022-10-14T06:47:35.670Z,8.30
2022-10-14T06:50:02.316Z,8.40
2022-10-14T06:52:28.917Z,8.50
2022-10-14T06:54:55.638Z,8.50
2022-10-14T06:57:22.285Z,8.60
2022-10-14T06:59:48.877Z,8.70
2022-10-14T07:02:15.584Z,8.70
2022-10-14T07:04:42.166Z,8.80
2022-10-14T07:07:09.073Z,8.90
2022-10-14T07:09:35.689Z,9.00
2022-10-14T07:12:02.328Z,9.10
2022-10-14T07:14:28.971Z,9.20
2022-10-14T07:16:55.563Z,9.30
2022-10-14T07:19:22.175Z,9.40
2022-10-14T07:21:48.817Z,9.50
2022-10-14T07:24:15.450Z,9.60
2022-10-14T07:26:42.137Z,9.70
2022-10-14T07:29:08.955Z,9.80
2022-10-14T07:31:36.099Z,9.80
2022-10-14T07:34:02.986Z,9.90
2022-10-14T07:36:30.378Z,10.00
2022-10-14T07:38:56.987Z,10.10
2022-10-14T07:41:25.392Z,10.10
2022-10-14T07:43:55.153Z,10.30
2022-10-14T07:46:32.199Z,10.30
2022-10-14T07:49:02.660Z,10.40
2022-10-14T07:51:29.724Z,10.60
2022-10-14T07:53:58.684Z,10.60
2022-10-14T07:56:25.352Z,10.70
2022-10-14T07:58:52.730Z,10.80
2022-10-14T08:01:19.686Z,10.90
2022-10-14T08:03:47.934Z,11.00
2022-10-14T08:06:14.700Z,11.10
2022-10-14T08:08:42.322Z,11.10
2022-10-14T08:11:13.058Z,11.20
2022-10-14T08:13:43.410Z,11.30
2022-10-14T08:16:25.122Z,11.30
2022-10-14T08:18:53.020Z,11.40
2022-10-14T08:21:21.228Z,11.40
2022-10-14T08:23:48.366Z,11.50
2022-10-14T08:26:24.178Z,11.60
2022-10-14T08:28:51.788Z,11.70
2022-10-14T08:31:18.741Z,11.70
2022-10-14T08:33:45.772Z,11.80
2022-10-14T08:36:13.023Z,11.90
2022-10-14T08:38:39.880Z,12.00
2022-10-14T08:41:12.644Z,12.10
2022-10-14T08:44:20.203Z,12.20
2022-10-14T08:46:58.162Z,12.30
2022-10-14T08:49:37.912Z,12.30
2022-10-14T08:52:18.777Z,12.40
2022-10-14T08:54:52.714Z,12.40
2022-10-14T08:57:22.217Z,12.40
2022-10-14T08:59:49.242Z,12.50
2022-10-14T09:02:31.244Z,12.50
2022-10-14T09:04:59.729Z,12.50
2022-10-14T09:07:26.656Z,12.50
2022-10-14T09:09:58.263Z,12.60
2022-10-14T09:12:30.228Z,12.60
2022-10-14T09:15:15.767Z,12.60
2022-10-14T09:18:20.072Z,12.70
2022-10-14T09:20:47.333Z,12.80
2022-10-14T09:23:22.994Z,12.90
2022-10-14T09:26:04.457Z,12.90
2022-10-14T09:28:38.502Z,13.00
2022-10-14T09:31:07.892Z,13.10
2022-10-14T09:33:42.177Z,13.20
2022-10-14T09:36:19.924Z,13.30
2022-10-14T09:38:55.381Z,13.40
2022-10-14T09:41:30.563Z,13.50
2022-10-14T09:44:27.944Z,13.50
2022-10-14T09:47:07.082Z,13.60
2022-10-14T09:49:45.771Z,13.70
2022-10-14T09:52:27.660Z,13.90
2022-10-14T09:54:57.013Z,13.90
2022-10-14T09:57:25.505Z,14.10
2022-10-14T10:00:00.619Z,14.30
2022-10-14T10:02:43.499Z,14.30
2022-10-14T10:05:22.367Z,14.30
2022-10-14T10:08:01.920Z,14.40
2022-10-14T10:10:30.774Z,14.50
2022-10-14T10:12:58.646Z,14.60
2022-10-14T10:15:25.857Z,14.80
2022-10-14T10:17:53.461Z,14.90
2022-10-14T10:23:29.005Z,15.10
2022-10-14T10:25:55.636Z,15.20
2022-10-14T10:28:31.964Z,15.30
2022-10-14T10:34:28.377Z,15.60
2022-10-14T10:37:04.356Z,15.70
2022-10-14T10:39:53.368Z,15.90
2022-10-14T10:42:39.829Z,16.10
2022-10-14T10:45:45.367Z,16.20
2022-10-14T10:48:38.157Z,16.40
2022-10-14T10:51:59.387Z,16.50
2022-10-14T10:55:31.397Z,16.80
2022-10-14T10:58:16.712Z,17.00
2022-10-14T11:00:59.439Z,17.20
2022-10-14T11:04:10.431Z,17.40
2022-10-14T11:07:28.213Z,17.60
2022-10-14T11:10:38.069Z,17.80
2022-10-14T11:13:29.492Z,18.00
2022-10-14T11:16:09.758Z,18.00
2022-10-14T11:19:17.375Z,18.10
2022-10-14T11:21:57.529Z,18.30
2022-10-14T11:24:51.424Z,18.50
2022-10-14T11:27:37.620Z,18.90
2022-10-14T11:30:20.439Z,18.80
2022-10-14T11:33:37.315Z,18.80
2022-10-14T11:36:38.443Z,18.70
2022-10-14T11:39:43.358Z,18.60
2022-10-14T11:42:35.612Z,18.60
2022-10-14T11:45:23.414Z,18.60
2022-10-14T11:47:54.306Z,18.50
2022-10-14T11:50:31.377Z,18.50
2022-10-14T11:53:19.454Z,18.40
2022-10-14T11:56:09.385Z,18.50
2022-10-14T11:58:45.409Z,18.30
2022-10-14T12:01:24.864Z,18.30
2022-10-14T12:04:10.380Z,18.30
2022-10-14T12:07:06.511Z,18.30
2022-10-14T12:09:42.980Z,18.20
2022-10-14T12:12:21.771Z,18.30
2022-10-14T12:14:59.065Z,18.30
2022-10-14T12:17:47.491Z,18.30
2022-10-14T12:20:31.169Z,18.40
2022-10-14T12:23:06.396Z,18.50
2022-10-14T12:25:43.327Z,18.50
2022-10-14T12:28:19.486Z,18.60
2022-10-14T12:30:54.569Z,18.60
2022-10-14T12:33:23.007Z,18.70
2022-10-14T12:36:06.439Z,18.80
2022-10-14T12:38:35.750Z,18.80
2022-10-14T12:41:40.449Z,18.80
2022-10-14T12:44:14.227Z,18.70
2022-10-14T12:46:52.474Z,18.70
2022-10-14T12:49:32.384Z,18.70
2022-10-14T12:52:09.608Z,18.70
2022-10-14T12:57:42.357Z,18.60
2022-10-14T13:00:45.465Z,18.60
2022-10-14T13:03:23.460Z,18.70
2022-10-14T13:05:56.430Z,18.80
2022-10-14T13:08:23.765Z,18.90
2022-10-14T13:11:06.413Z,18.80
2022-10-14T13:13:49.344Z,18.80
2022-10-14T13:16:32.426Z,18.80
2022-10-14T13:19:06.425Z,18.80
2022-10-14T13:21:45.384Z,18.80
2022-10-14T13:24:26.867Z,18.70
2022-10-14T13:27:00.469Z,18.70
2022-10-14T13:30:00.638Z,18.70
2022-10-14T13:32:47.447Z,18.60
2022-10-14T13:35:52.387Z,18.60
2022-10-14T13:38:28.499Z,18.70
2022-10-14T13:41:03.396Z,19.00
2022-10-14T13:43:42.441Z,19.60
2022-10-14T13:46:26.432Z,20.00
2022-10-14T13:48:57.168Z,20.30
2022-10-14T13:51:54.409Z,20.50
2022-10-14T13:54:27.680Z,20.60
2022-10-14T14:00:38.965Z,20.40
2022-10-14T14:02:55.156Z,20.10
2022-10-14T14:05:25.462Z,19.90
2022-10-14T14:08:36.910Z,19.70
2022-10-14T14:11:22.510Z,19.80
2022-10-14T14:14:31.476Z,20.00
2022-10-14T14:17:06.469Z,20.40
2022-10-14T14:19:42.483Z,20.90
2022-10-14T14:22:28.654Z,21.00
2022-10-14T14:25:34.437Z,20.80
2022-10-14T14:28:03.395Z,20.40
2022-10-14T14:30:42.421Z,20.20
2022-10-14T14:33:18.093Z,19.70
2022-10-14T14:36:03.429Z,19.50
2022-10-14T14:38:35.982Z,19.20
2022-10-14T14:41:23.457Z,18.90
2022-10-14T14:44:24.162Z,18.80
2022-10-14T14:46:51.406Z,18.60
2022-10-14T14:49:25.230Z,18.50
2022-10-14T14:51:59.457Z,18.30
2022-10-14T14:54:28.719Z,18.20
2022-10-14T14:57:07.445Z,18.10
2022-10-14T14:59:46.414Z,17.90
2022-10-14T15:02:20.438Z,17.90
2022-10-14T15:05:04.403Z,17.80
2022-10-14T15:07:31.073Z,17.70
2022-10-14T15:10:07.417Z,17.60
2022-10-14T15:12:48.476Z,17.50
2022-10-14T15:15:47.397Z,17.50
2022-10-14T15:18:31.412Z,17.40
2022-10-14T15:21:25.042Z,17.30
2022-10-14T15:23:59.474Z,17.20
2022-10-14T15:26:31.642Z,17.20
2022-10-14T15:29:16.472Z,17.20
2022-10-14T15:32:10.404Z,17.10
2022-10-14T15:34:37.111Z,17.10
2022-10-14T15:37:10.440Z,17.00
2022-10-14T15:39:37.061Z,17.00
2022-10-14T15:42:18.413Z,17.00
2022-10-14T15:44:45.009Z,16.90
2022-10-14T15:47:28.461Z,16.80
2022-10-14T15:49:56.164Z,16.70
2022-10-14T15:52:29.643Z,16.60
2022-10-14T15:54:58.388Z,16.50
2022-10-14T15:57:25.288Z,16.40
2022-10-14T15:59:53.267Z,16.30
2022-10-14T16:02:32.637Z,16.20
2022-10-14T16:07:45.915Z,16.00
2022-10-14T16:10:15.953Z,15.90
2022-10-14T16:12:43.053Z,15.70
2022-10-14T16:15:30.176Z,15.60
2022-10-14T16:17:56.988Z,15.50
2022-10-14T16:20:24.600Z,15.40
2022-10-14T16:22:52.457Z,15.30
2022-10-14T16:25:30.940Z,15.20
2022-10-14T16:27:57.945Z,15.10
2022-10-14T16:30:24.699Z,15.00
2022-10-14T16:32:51.336Z,14.90
2022-10-14T16:35:18.011Z,14.80
2022-10-14T16:37:44.630Z,14.70
2022-10-14T16:40:11.809Z,14.60
2022-10-14T16:42:39.028Z,14.50
2022-10-14T16:45:06.227Z,14.40
2022-10-14T16:47:32.848Z,14.30
2022-10-14T16:49:59.814Z,14.30
2022-10-14T16:52:26.780Z,14.20
2022-10-14T16:54:53.857Z,14.10
2022-10-14T16:57:21.135Z,14.00
2022-10-14T16:59:47.775Z,14.00
2022-10-14T17:02:16.425Z,13.80
2022-10-14T17:04:46.256Z,13.70
2022-10-14T17:07:14.748Z,13.60
2022-10-14T17:09:41.453Z,13.50
2022-10-14T17:12:12.898Z,13.40
2022-10-14T17:14:41.142Z,13.30
2022-10-14T17:17:07.815Z,13.30
2022-10-14T17:19:35.153Z,13.20
2022-10-14T17:22:03.170Z,13.10
2022-10-14T17:24:30.279Z,13.10
2022-10-14T17:26:57.050Z,13.00
2022-10-14T17:29:24.133Z,12.90
2022-10-14T17:31:50.835Z,12.90
2022-10-14T17:34:17.425Z,12.90
2022-10-14T17:36:44.120Z,12.90
2022-10-14T17:39:18.694Z,12.90
2022-10-14T17:41:50.972Z,12.80
2022-10-14T17:44:17.781Z,12.80
2022-10-14T17:46:45.160Z,12.80
2022-10-14T17:49:12.403Z,12.80
2022-10-14T17:51:39.442Z,12.80
2022-10-14T17:54:09.711Z,12.80
2022-10-14T17:56:36.552Z,12.80
2022-10-14T17:59:08.509Z,12.80
2022-10-14T18:02:02.059Z,12.80
2022-10-14T18:04:22.067Z,12.90
2022-10-14T18:06:48.809Z,12.90
2022-10-14T18:09:15.467Z,12.90
2022-10-14T18:14:30.470Z,13.00
2022-10-14T18:16:59.302Z,13.00
2022-10-14T18:19:26.277Z,13.00
2022-10-14T18:21:52.889Z,13.00
2022-10-14T18:24:20.271Z,13.10
2022-10-14T18:26:49.838Z,13.00
2022-10-14T18:29:16.619Z,13.10
2022-10-14T18:31:43.304Z,13.00
2022-10-14T18:34:11.198Z,13.00
2022-10-14T18:36:38.303Z,13.00
2022-10-14T18:39:07.515Z,13.00
2022-10-14T18:41:34.579Z,12.90
2022-10-14T18:44:01.250Z,12.90
2022-10-14T18:46:33.920Z,12.90
2022-10-14T18:49:02.324Z,12.80
2022-10-14T18:51:31.834Z,12.90
2022-10-14T18:54:00.794Z,12.90
2022-10-14T18:56:30.129Z,12.80
2022-10-14T18:58:59.194Z,12.80
2022-10-14T19:01:26.950Z,12.80
2022-10-14T19:03:54.185Z,12.70
2022-10-14T19:06:21.865Z,12.60
2022-10-14T19:08:49.410Z,12.50
2022-10-14T19:11:24.530Z,12.50
2022-10-14T19:13:53.213Z,12.40
2022-10-14T19:16:36.005Z,12.40
2022-10-14T19:19:11.487Z,12.40
2022-10-14T19:21:39.234Z,12.30
2022-10-14T19:24:08.139Z,12.30
2022-10-14T19:26:36.208Z,12.30
2022-10-14T19:29:07.797Z,12.30
2022-10-14T19:31:38.184Z,12.30
2022-10-14T19:34:07.023Z,12.30
2022-10-14T19:36:36.076Z,12.30
2022-10-14T19:39:04.205Z,12.30
2022-10-14T19:41:33.714Z,12.30
2022-10-14T19:44:01.091Z,12.30
2022-10-14T19:46:29.382Z,12.30
2022-10-14T19:48:58.473Z,12.30
2022-10-14T19:51:25.938Z,12.30
2022-10-14T19:53:54.980Z,12.30
2022-10-14T19:56:22.860Z,12.30
2022-10-14T19:58:52.956Z,12.30
2022-10-14T20:01:21.482Z,12.30
2022-10-14T20:03:48.243Z,12.30
2022-10-14T20:06:15.006Z,12.30
2022-10-14T20:08:43.882Z,12.30
2022-10-14T20:11:12.525Z,12.30
2022-10-14T20:13:39.612Z,12.30
2022-10-14T20:16:12.356Z,12.30
2022-10-14T20:18:39.102Z,12.30
2022-10-14T20:21:07.678Z,12.30
2022-10-14T20:23:35.663Z,12.40
2022-10-14T20:26:05.230Z,12.40
2022-10-14T20:28:32.076Z,12.40
2022-10-14T20:30:58.732Z,12.40
2022-10-14T20:33:25.504Z,12.50
2022-10-14T20:36:05.730Z,12.50
2022-10-14T20:38:32.625Z,12.50
2022-10-14T20:41:06.834Z,12.50
2022-10-14T20:43:33.632Z,12.60
2022-10-14T20:46:00.316Z,12.60
2022-10-14T20:48:26.996Z,12.60
2022-10-14T20:50:53.646Z,12.60
2022-10-14T20:53:20.296Z,12.60
2022-10-14T20:55:46.900Z,12.60
2022-10-14T20:58:13.642Z,12.60
2022-10-14T21:00:40.314Z,12.70
2022-10-14T21:03:07.056Z,12.70
2022-10-14T21:05:37.438Z,12.70
2022-10-14T21:08:05.247Z,12.70
2022-10-14T21:10:31.865Z,12.70
2022-10-14T21:12:58.432Z,12.70
2022-10-14T21:15:26.935Z,12.70
2022-10-14T21:17:53.599Z,12.70
2022-10-14T21:20:20.378Z,12.60
2022-10-14T21:22:47.111Z,12.60
2022-10-14T21:25:13.985Z,12.60
2022-10-14T21:27:40.606Z,12.50
2022-10-14T21:30:07.717Z,12.50
2022-10-14T21:32:34.306Z,12.50
2022-10-14T21:35:00.946Z,12.60
2022-10-14T21:37:27.544Z,12.50
2022-10-14T21:39:54.199Z,12.50
2022-10-14T21:42:21.090Z,12.50
2022-10-14T21:44:47.981Z,12.50
2022-10-14T21:47:14.610Z,12.50
2022-10-14T21:49:41.236Z,12.50
2022-10-14T21:52:08.185Z,12.50
2022-10-14T21:54:34.820Z,12.60
2022-10-14T21:57:01.408Z,12.60
2022-10-14T21:59:28.032Z,12.50
2022-10-14T22:01:58.751Z,12.50
2022-10-14T22:04:33.233Z,12.50
2022-10-14T22:07:02.562Z,12.50
2022-10-14T22:09:29.272Z,12.50
2022-10-14T22:11:55.856Z,12.50
2022-10-14T22:14:22.484Z,12.50
2022-10-14T22:16:49.223Z,12.50
2022-10-14T22:19:15.888Z,12.50
2022-10-14T22:21:43.665Z,12.50
2022-10-14T22:24:10.651Z,12.50
2022-10-14T22:26:38.039Z,12.50
2022-10-14T22:29:14.720Z,12.40
2022-10-14T22:31:42.118Z,12.40
2022-10-14T22:34:11.084Z,12.40
2022-10-14T22:36:37.996Z,12.40
2022-10-14T22:39:15.930Z,12.40
2022-10-14T22:41:42.795Z,12.40
2022-10-14T22:44:10.326Z,12.30
2022-10-14T22:46:39.101Z,12.30
2022-10-14T22:49:05.753Z,12.30
2022-10-14T22:51:35.799Z,12.30
2022-10-14T22:54:03.248Z,12.30
2022-10-14T22:56:31.197Z,12.30
2022-10-14T22:59:03.426Z,12.30
2022-10-14T23:01:31.048Z,12.30
2022-10-14T23:03:59.356Z,12.20
2022-10-14T23:06:27.033Z,12.20
2022-10-14T23:08:54.467Z,12.30
2022-10-14T23:11:24.011Z,12.30
2022-10-14T23:13:50.918Z,12.30
2022-10-14T23:16:20.668Z,12.30
2022-10-14T23:18:47.996Z,12.30
2022-10-14T23:21:16.042Z,12.20
2022-10-14T23:23:44.047Z,12.20
2022-10-14T23:26:15.841Z,12.30
2022-10-14T23:28:43.982Z,12.20
2022-10-14T23:31:12.469Z,12.30
2022-10-14T23:33:40.287Z,12.30
2022-10-14T23:36:09.300Z,12.30
2022-10-14T23:38:35.912Z,12.30
2022-10-14T23:41:03.782Z,12.30
2022-10-14T23:43:30.508Z,12.40
2022-10-14T23:45:57.155Z,12.40
2022-10-14T23:48:24.178Z,12.40
2022-10-14T23:50:50.849Z,12.40
2022-10-14T23:53:18.090Z,12.40
2022-10-14T23:55:44.820Z,12.40
2022-10-14T23:58:12.146Z,12.40
